createdAt,value
2023-05-21T00:01:16.499Z,73.76
2023-05-21T00:03:45.958Z,69.42
2023-05-21T00:06:15.530Z,73.28
2023-05-21T00:08:43.457Z,70.18
2023-05-21T00:11:11.093Z,69.55
2023-05-21T00:13:38.722Z,68.98
2023-05-21T00:16:07.044Z,67.68
2023-05-21T00:18:35.246Z,66.81
2023-05-21T00:21:03.032Z,70.50
2023-05-21T00:23:32.837Z,71.85
2023-05-21T00:26:00.609Z,73.82
2023-05-21T00:28:28.260Z,72.25
2023-05-21T00:30:56.046Z,69.09
2023-05-21T00:33:26.427Z,71.46
2023-05-21T00:35:54.204Z,69.48
2023-05-21T00:38:22.134Z,68.89
2023-05-21T00:40:51.184Z,69.20
2023-05-21T00:43:18.826Z,69.32
2023-05-21T00:45:47.444Z,67.14
2023-05-21T00:48:16.028Z,69.48
2023-05-21T00:50:44.965Z,67.71
2023-05-21T00:53:13.470Z,67.04
2023-05-21T00:55:42.070Z,76.27
2023-05-21T00:58:11.135Z,70.27
2023-05-21T01:00:40.523Z,69.39
2023-05-21T01:03:08.344Z,69.44
2023-05-21T01:05:36.965Z,75.10
2023-05-21T01:08:05.640Z,77.47
2023-05-21T01:10:33.546Z,73.24
2023-05-21T01:13:01.500Z,72.25
2023-05-21T01:15:30.827Z,69.24
2023-05-21T01:17:58.586Z,74.94
2023-05-21T01:20:26.415Z,70.51
2023-05-21T01:22:56.520Z,70.73
2023-05-21T01:25:25.087Z,71.76
2023-05-21T01:27:52.940Z,71.42
2023-05-21T01:30:22.792Z,74.76
2023-05-21T01:32:56.277Z,75.82
2023-05-21T01:35:29.785Z,70.73
2023-05-21T01:38:03.971Z,76.67
2023-05-21T01:40:38.310Z,71.42
2023-05-21T01:43:08.220Z,69.08
2023-05-21T01:45:39.733Z,68.15
2023-05-21T01:48:09.309Z,73.89
2023-05-21T01:50:39.026Z,69.78
2023-05-21T01:53:08.052Z,68.74
2023-05-21T01:55:39.529Z,76.70
2023-05-21T01:58:07.221Z,78.95
2023-05-21T02:00:34.847Z,76.61
2023-05-21T02:03:02.669Z,72.18
2023-05-21T02:05:30.496Z,76.64
2023-05-21T02:08:00.572Z,82.26
2023-05-21T02:10:29.607Z,74.95
2023-05-21T02:12:57.201Z,73.78
2023-05-21T02:15:24.960Z,73.87
2023-05-21T02:17:53.073Z,74.59
2023-05-21T02:20:22.285Z,71.74
2023-05-21T02:22:50.484Z,71.35
2023-05-21T02:25:19.894Z,70.74
2023-05-21T02:27:53.912Z,79.83
2023-05-21T02:30:21.805Z,77.05
2023-05-21T02:32:50.781Z,71.71
2023-05-21T02:35:18.633Z,70.85
2023-05-21T02:37:46.238Z,74.95
2023-05-21T02:40:14.154Z,78.36
2023-05-21T02:42:42.178Z,73.06
2023-05-21T02:45:13.554Z,70.22
2023-05-21T02:47:41.443Z,77.97
2023-05-21T02:50:10.546Z,72.58
2023-05-21T02:52:38.151Z,70.49
2023-05-21T02:55:06.546Z,73.96
2023-05-21T02:57:34.176Z,71.36
2023-05-21T03:00:01.819Z,69.92
2023-05-21T03:02:30.963Z,68.69
2023-05-21T03:04:58.940Z,68.50
2023-05-21T03:07:26.779Z,68.36
2023-05-21T03:09:54.405Z,71.42
2023-05-21T03:12:22.038Z,72.78
2023-05-21T03:14:51.391Z,70.15
2023-05-21T03:17:20.580Z,69.24
2023-05-21T03:19:50.094Z,69.95
2023-05-21T03:22:17.743Z,68.79
2023-05-21T03:24:46.315Z,68.53
2023-05-21T03:27:14.048Z,68.57
2023-05-21T03:29:43.203Z,68.78
2023-05-21T03:32:10.935Z,68.52
2023-05-21T03:34:38.509Z,75.60
2023-05-21T03:37:07.648Z,71.52
2023-05-21T03:39:35.238Z,70.48
2023-05-21T03:42:02.875Z,69.39
2023-05-21T03:44:32.397Z,69.25
2023-05-21T03:47:00.144Z,69.61
2023-05-21T03:49:27.851Z,73.81
2023-05-21T03:51:55.509Z,71.17
2023-05-21T03:54:24.487Z,69.86
2023-05-21T03:56:52.095Z,69.77
2023-05-21T03:59:19.739Z,69.36
2023-05-21T04:01:47.331Z,77.36
2023-05-21T04:04:15.185Z,73.70
2023-05-21T04:06:42.852Z,71.20
2023-05-21T04:09:10.487Z,76.59
2023-05-21T04:11:39.407Z,82.10
2023-05-21T04:14:07.230Z,76.25
2023-05-21T04:16:35.994Z,72.86
2023-05-21T04:19:03.682Z,72.93
2023-05-21T04:21:32.219Z,79.51
2023-05-21T04:24:00.856Z,79.52
2023-05-21T04:26:29.506Z,74.30
2023-05-21T04:28:59.384Z,72.54
2023-05-21T04:31:27.086Z,72.16
2023-05-21T04:33:54.737Z,72.01
2023-05-21T04:36:22.366Z,71.34
2023-05-21T04:38:49.971Z,71.49
2023-05-21T04:41:18.928Z,72.78
2023-05-21T04:43:46.676Z,71.48
2023-05-21T04:46:15.818Z,70.99
2023-05-21T04:48:45.128Z,79.16
2023-05-21T04:51:12.752Z,74.59
2023-05-21T04:53:40.484Z,75.93
2023-05-21T04:56:09.261Z,72.88
2023-05-21T04:58:37.234Z,76.46
2023-05-21T05:01:05.031Z,72.94
2023-05-21T05:03:34.046Z,71.51
2023-05-21T05:06:04.289Z,75.06
2023-05-21T05:08:31.928Z,79.20
2023-05-21T05:10:59.564Z,75.54
2023-05-21T05:13:27.184Z,82.14
2023-05-21T05:15:54.949Z,76.20
2023-05-21T05:18:22.588Z,73.49
2023-05-21T05:20:51.568Z,71.86
2023-05-21T05:23:19.144Z,71.53
2023-05-21T05:25:46.832Z,71.23
2023-05-21T05:28:14.494Z,71.47
2023-05-21T05:30:42.137Z,76.14
2023-05-21T05:33:09.821Z,73.24
2023-05-21T05:35:37.733Z,72.79
2023-05-21T05:38:08.848Z,80.36
2023-05-21T05:40:36.487Z,74.24
2023-05-21T05:43:04.163Z,72.11
2023-05-21T05:45:31.762Z,71.21
2023-05-21T05:47:59.376Z,70.48
2023-05-21T05:50:27.058Z,76.25
2023-05-21T05:52:54.710Z,76.64
2023-05-21T05:55:25.128Z,71.28
2023-05-21T05:57:52.734Z,77.94
2023-05-21T06:00:20.912Z,73.83
2023-05-21T06:02:49.202Z,74.94
2023-05-21T06:05:17.249Z,70.54
2023-05-21T06:07:44.954Z,69.24
2023-05-21T06:10:12.597Z,67.04
2023-05-21T06:12:41.590Z,74.70
2023-05-21T06:15:10.301Z,73.85
2023-05-21T06:17:37.973Z,70.71
2023-05-21T06:20:07.250Z,70.93
2023-05-21T06:22:34.901Z,70.26
2023-05-21T06:25:02.502Z,71.43
2023-05-21T06:27:30.619Z,70.34
2023-05-21T06:29:59.531Z,65.92
2023-05-21T06:32:27.153Z,68.58
2023-05-21T06:34:54.763Z,67.64
2023-05-21T06:37:23.456Z,69.25
2023-05-21T06:39:52.402Z,64.74
2023-05-21T06:42:19.960Z,62.96
2023-05-21T06:44:47.517Z,61.99
2023-05-21T06:47:16.423Z,61.14
2023-05-21T06:49:43.997Z,61.44
2023-05-21T06:52:11.561Z,60.77
2023-05-21T06:54:39.240Z,60.29
2023-05-21T06:57:06.880Z,59.83
2023-05-21T06:59:34.636Z,60.20
2023-05-21T07:02:04.491Z,62.00
2023-05-21T07:04:35.263Z,59.97
2023-05-21T07:07:04.473Z,59.47
2023-05-21T07:09:32.161Z,59.11
2023-05-21T07:12:01.242Z,58.52
2023-05-21T07:14:28.851Z,58.49
2023-05-21T07:16:56.451Z,58.23
2023-05-21T07:19:24.103Z,58.17
2023-05-21T07:21:53.081Z,60.59
2023-05-21T07:24:21.113Z,58.44
2023-05-21T07:26:48.723Z,59.64
2023-05-21T07:29:16.363Z,63.27
2023-05-21T07:31:43.967Z,63.72
2023-05-21T07:34:11.544Z,62.11
2023-05-21T07:36:39.137Z,61.53
2023-05-21T07:39:08.364Z,59.14
2023-05-21T07:41:36.080Z,57.99
2023-05-21T07:44:03.716Z,57.38
2023-05-21T07:46:31.334Z,56.67
2023-05-21T07:48:58.993Z,56.28
2023-05-21T07:51:27.058Z,55.71
2023-05-21T07:53:55.381Z,55.89
2023-05-21T07:56:24.628Z,54.80
2023-05-21T07:58:52.185Z,55.10
2023-05-21T08:01:19.833Z,55.18
2023-05-21T08:03:47.529Z,55.27
2023-05-21T08:06:15.237Z,54.15
2023-05-21T08:08:42.831Z,53.63
2023-05-21T08:11:10.426Z,54.37
2023-05-21T08:13:39.355Z,61.48
2023-05-21T08:16:07.664Z,58.59
2023-05-21T08:18:35.279Z,59.46
2023-05-21T08:21:02.968Z,58.82
2023-05-21T08:23:30.536Z,56.72
2023-05-21T08:25:58.258Z,57.05
2023-05-21T08:28:27.510Z,55.26
2023-05-21T08:30:56.469Z,56.39
2023-05-21T08:33:24.074Z,62.40
2023-05-21T08:35:51.660Z,56.87
2023-05-21T08:38:19.235Z,59.05
2023-05-21T08:40:48.071Z,60.92
2023-05-21T08:43:16.541Z,63.03
2023-05-21T08:45:46.415Z,61.58
2023-05-21T08:48:17.439Z,56.17
2023-05-21T08:50:46.148Z,59.24
2023-05-21T08:53:26.653Z,57.59
2023-05-21T08:55:59.838Z,61.07
2023-05-21T08:58:28.084Z,61.58
2023-05-21T09:00:57.541Z,62.48
2023-05-21T09:03:27.427Z,60.40
2023-05-21T09:05:56.145Z,62.40
2023-05-21T09:08:30.774Z,55.53
2023-05-21T09:10:58.338Z,56.59
2023-05-21T09:13:27.446Z,61.07
2023-05-21T09:15:55.044Z,60.50
2023-05-21T09:18:22.666Z,57.43
2023-05-21T09:20:54.033Z,61.18
2023-05-21T09:23:21.649Z,61.31
2023-05-21T09:25:51.918Z,56.13
2023-05-21T09:28:21.319Z,56.63
2023-05-21T09:30:50.567Z,61.12
2023-05-21T09:33:26.578Z,58.36
2023-05-21T09:35:55.502Z,56.10
2023-05-21T09:38:24.510Z,52.49
2023-05-21T09:40:52.103Z,52.73
2023-05-21T09:43:19.726Z,51.65
2023-05-21T09:45:54.281Z,50.01
2023-05-21T09:48:35.697Z,52.57
2023-05-21T09:51:16.004Z,50.59
2023-05-21T09:53:49.842Z,56.45
2023-05-21T09:56:20.071Z,55.61
2023-05-21T09:58:47.682Z,50.28
2023-05-21T10:01:15.348Z,52.93
2023-05-21T10:03:45.508Z,48.53
2023-05-21T10:06:15.798Z,52.46
2023-05-21T10:08:48.843Z,52.24
2023-05-21T10:11:17.730Z,50.79
2023-05-21T10:13:51.939Z,47.98
2023-05-21T10:16:19.987Z,49.60
2023-05-21T10:18:49.600Z,53.15
2023-05-21T10:21:19.401Z,50.13
2023-05-21T10:23:47.350Z,49.30
2023-05-21T10:26:15.453Z,48.32
2023-05-21T10:28:43.872Z,49.34
2023-05-21T10:31:13.147Z,54.88
2023-05-21T10:33:43.176Z,49.73
2023-05-21T10:36:11.127Z,52.19
2023-05-21T10:38:41.571Z,47.63
2023-05-21T10:41:10.664Z,46.86
2023-05-21T10:43:57.460Z,46.01
2023-05-21T10:47:06.500Z,45.03
2023-05-21T10:49:50.129Z,45.99
2023-05-21T10:52:32.477Z,45.75
2023-05-21T10:55:23.531Z,47.16
2023-05-21T10:58:14.933Z,47.14
2023-05-21T11:00:44.320Z,45.90
2023-05-21T11:03:15.949Z,45.30
2023-05-21T11:05:53.818Z,44.16
2023-05-21T11:08:31.656Z,44.12
2023-05-21T11:11:00.654Z,47.79
2023-05-21T11:13:31.308Z,44.45
2023-05-21T11:16:08.963Z,43.41
2023-05-21T11:18:58.091Z,45.51
2023-05-21T11:21:28.483Z,43.76
2023-05-21T11:23:57.322Z,43.66
2023-05-21T11:26:28.281Z,42.16
2023-05-21T11:29:08.490Z,43.66
2023-05-21T11:31:39.484Z,43.62
2023-05-21T11:34:12.852Z,40.85
2023-05-21T11:36:42.125Z,41.45
2023-05-21T11:39:11.000Z,41.11
2023-05-21T11:42:01.609Z,41.92
2023-05-21T11:44:41.198Z,41.75
2023-05-21T11:47:10.217Z,40.85
2023-05-21T11:49:39.122Z,41.74
2023-05-21T11:52:09.404Z,42.08
2023-05-21T11:54:53.089Z,39.48
2023-05-21T11:57:41.226Z,38.55
2023-05-21T12:00:22.040Z,38.33
2023-05-21T12:02:56.120Z,38.17
2023-05-21T12:05:27.416Z,38.76
2023-05-21T12:07:58.558Z,41.72
2023-05-21T12:10:39.920Z,41.57
2023-05-21T12:13:21.352Z,39.01
2023-05-21T12:16:00.893Z,39.02
2023-05-21T12:18:41.486Z,38.01
2023-05-21T12:21:41.397Z,38.55
2023-05-21T12:24:16.468Z,39.92
2023-05-21T12:26:52.269Z,38.82
2023-05-21T12:32:50.487Z,38.56
2023-05-21T12:35:28.265Z,38.93
2023-05-21T12:38:04.577Z,40.98
2023-05-21T12:40:41.199Z,39.48
2023-05-21T12:43:10.114Z,38.86
2023-05-21T12:45:41.065Z,38.67
2023-05-21T12:48:09.206Z,41.13
2023-05-21T12:50:41.736Z,40.41
2023-05-21T12:53:11.067Z,39.52
2023-05-21T12:55:40.552Z,40.59
2023-05-21T12:58:09.567Z,41.16
2023-05-21T13:00:39.809Z,47.95
2023-05-21T13:03:08.446Z,42.15
2023-05-21T13:05:36.728Z,48.52
2023-05-21T13:08:04.850Z,40.98
2023-05-21T13:10:33.311Z,41.38
2023-05-21T13:13:01.844Z,48.03
2023-05-21T13:15:30.170Z,42.41
2023-05-21T13:18:01.489Z,44.25
2023-05-21T13:20:30.611Z,48.63
2023-05-21T13:22:59.152Z,43.27
2023-05-21T13:25:29.916Z,42.96
2023-05-21T13:27:59.166Z,44.97
2023-05-21T13:30:27.523Z,43.79
2023-05-21T13:32:56.625Z,42.68
2023-05-21T13:35:26.763Z,43.32
2023-05-21T13:37:58.787Z,43.36
2023-05-21T13:40:27.870Z,42.64
2023-05-21T13:42:56.622Z,46.60
2023-05-21T13:45:29.593Z,44.30
2023-05-21T13:48:01.777Z,42.83
2023-05-21T13:50:31.468Z,43.24
2023-05-21T13:53:05.553Z,49.27
2023-05-21T13:55:37.418Z,43.23
2023-05-21T13:58:06.715Z,48.23
2023-05-21T14:00:37.459Z,41.35
2023-05-21T14:03:10.189Z,39.86
2023-05-21T14:05:42.450Z,38.54
2023-05-21T14:08:10.625Z,37.03
2023-05-21T14:10:38.970Z,36.32
2023-05-21T14:13:19.485Z,35.28
2023-05-21T14:15:48.579Z,34.54
2023-05-21T14:18:16.659Z,33.78
2023-05-21T14:21:17.843Z,31.03
2023-05-21T14:24:01.155Z,34.84
2023-05-21T14:26:29.533Z,41.50
2023-05-21T14:28:57.223Z,34.92
2023-05-21T14:31:25.981Z,37.86
2023-05-21T14:33:54.017Z,33.89
2023-05-21T14:36:23.564Z,38.62
2023-05-21T14:38:51.656Z,44.56
2023-05-21T14:41:26.835Z,35.95
2023-05-21T14:43:55.408Z,40.70
2023-05-21T14:46:23.427Z,42.86
2023-05-21T14:48:51.856Z,39.39
2023-05-21T14:51:20.441Z,37.95
2023-05-21T14:53:51.503Z,36.44
2023-05-21T14:56:21.742Z,36.10
2023-05-21T14:58:49.641Z,36.17
2023-05-21T15:01:17.742Z,40.73
2023-05-21T15:03:45.786Z,37.89
2023-05-21T15:06:13.779Z,35.63
2023-05-21T15:08:41.539Z,35.21
2023-05-21T15:11:11.592Z,34.89
2023-05-21T15:13:45.832Z,34.51
2023-05-21T15:16:13.443Z,39.30
2023-05-21T15:18:41.068Z,38.31
2023-05-21T15:21:08.609Z,40.40
2023-05-21T15:23:39.822Z,35.91
2023-05-21T15:26:09.629Z,35.42
2023-05-21T15:28:39.671Z,34.87
2023-05-21T15:31:15.125Z,35.23
2023-05-21T15:33:44.713Z,38.23
2023-05-21T15:36:12.804Z,40.31
2023-05-21T15:38:46.338Z,36.57
2023-05-21T15:42:13.187Z,36.36
2023-05-21T15:45:50.573Z,39.30
2023-05-21T15:52:23.427Z,36.83
2023-05-21T20:06:48.936Z,61.72
2023-05-21T20:09:21.828Z,60.07
2023-05-21T20:11:51.062Z,56.71
2023-05-21T20:14:19.689Z,65.68
2023-05-21T20:16:48.497Z,62.75
2023-05-21T20:19:17.031Z,57.26
2023-05-21T20:22:52.685Z,67.89
2023-05-21T20:26:07.936Z,65.55
2023-05-21T20:29:10.387Z,57.02
2023-05-21T20:32:08.686Z,61.40
2023-05-21T23:21:16.156Z,58.84
2023-05-21T23:23:43.743Z,58.80
2023-05-21T23:26:11.450Z,58.40
2023-05-21T23:28:39.595Z,58.28
2023-05-21T23:31:07.196Z,58.32
2023-05-21T23:33:34.857Z,58.00
2023-05-21T23:36:02.401Z,58.12
2023-05-21T23:38:31.235Z,58.04
2023-05-21T23:40:58.777Z,57.78
2023-05-21T23:43:26.428Z,57.66
2023-05-21T23:45:53.982Z,57.79
2023-05-21T23:48:21.649Z,57.74
2023-05-21T23:50:49.402Z,57.54
2023-05-21T23:53:17.035Z,62.40
2023-05-21T23:55:46.055Z,60.70
2023-05-21T23:58:13.733Z,69.30
